Time;durP1;ratioP1;P1;durP2;ratioP2;P2;SDS_P1;SDS_P2;PMS_P1;PMS_P2;Temp;Humidity;BMP_temperature;BMP_pressure;BME280_temperature;BME280_humidity;BME280_pressure;Samples;Min_cycle;Max_cycle;Signal;HPM_P1;HPM_P2
2022/01/09 00:00:09;;;;;;;14.73;5.73;;;;;;;;;;5045927;28;20043;-71
2022/01/09 00:02:34;;;;;;;16.40;6.47;;;;;;;;;;5050904;28;20025;-71
2022/01/09 00:05:00;;;;;;;14.30;6.97;;;;;;;;;;5050813;28;20437;-72
2022/01/09 00:07:25;;;;;;;14.37;6.43;;;;;;;;;;5050013;28;20045;-70
2022/01/09 00:09:51;;;;;;;24.10;6.47;;;;;;;;;;5052356;28;20040;-71
2022/01/09 00:12:16;;;;;;;20.40;6.63;;;;;;;;;;5050458;28;20496;-70
2022/01/09 00:14:41;;;;;;;12.90;6.23;;;;;;;;;;5047610;28;20021;-71
2022/01/09 00:17:07;;;;;;;17.83;6.33;;;;;;;;;;5051538;28;20025;-70
2022/01/09 00:19:32;;;;;;;14.30;5.60;;;;;;;;;;5051563;28;20044;-71
2022/01/09 00:21:58;;;;;;;19.53;6.13;;;;;;;;;;5050202;28;20467;-71
2022/01/09 00:24:24;;;;;;;15.33;5.53;;;;;;;;;;5050011;28;20025;-70
2022/01/09 00:26:49;;;;;;;20.37;6.17;;;;;;;;;;5048673;28;20024;-71
2022/01/09 00:29:15;;;;;;;12.63;6.23;;;;;;;;;;5049876;28;20415;-70
2022/01/09 00:31:40;;;;;;;17.43;6.83;;;;;;;;;;5049966;28;20515;-72
2022/01/09 00:34:06;;;;;;;13.40;5.80;;;;;;;;;;5050043;28;20037;-70
2022/01/09 00:36:31;;;;;;;15.20;6.63;;;;;;;;;;5049492;28;20117;-71
2022/01/09 00:38:57;;;;;;;16.80;5.57;;;;;;;;;;5051273;28;20025;-70
2022/01/09 00:41:23;;;;;;;13.50;6.20;;;;;;;;;;5049824;28;20033;-71
2022/01/09 00:43:50;;;;;;;15.00;6.27;;;;;;;;;;5050470;28;20029;-70
2022/01/09 00:46:15;;;;;;;13.03;5.67;;;;;;;;;;5049597;28;20313;-70
2022/01/09 00:48:41;;;;;;;14.37;6.50;;;;;;;;;;5051372;28;20078;-71
2022/01/09 00:51:07;;;;;;;17.17;7.17;;;;;;;;;;5050875;28;20021;-70
2022/01/09 00:53:32;;;;;;;11.00;5.80;;;;;;;;;;5051253;28;20020;-70
2022/01/09 00:55:58;;;;;;;10.83;5.57;;;;;;;;;;5049906;28;20033;-71
2022/01/09 00:58:23;;;;;;;15.17;6.13;;;;;;;;;;5054027;28;20025;-71
2022/01/09 01:00:49;;;;;;;19.07;6.10;;;;;;;;;;5051732;28;20036;-71
2022/01/09 01:03:14;;;;;;;12.77;5.33;;;;;;;;;;5050973;28;20469;-71
2022/01/09 01:05:40;;;;;;;14.10;5.40;;;;;;;;;;5049468;28;20033;-71
2022/01/09 01:08:05;;;;;;;11.07;5.00;;;;;;;;;;5049596;28;20067;-72
2022/01/09 01:10:31;;;;;;;15.33;6.23;;;;;;;;;;5048913;28;20511;-71
2022/01/09 01:12:56;;;;;;;12.17;5.37;;;;;;;;;;5049495;28;20091;-70
2022/01/09 01:15:22;;;;;;;10.00;4.77;;;;;;;;;;5050515;28;20340;-73
2022/01/09 01:17:48;;;;;;;14.67;5.50;;;;;;;;;;5050265;28;20116;-71
2022/01/09 01:20:13;;;;;;;17.77;6.30;;;;;;;;;;5048598;28;20025;-70
2022/01/09 01:22:40;;;;;;;11.13;5.30;;;;;;;;;;5050602;28;20016;-72
2022/01/09 01:25:06;;;;;;;17.57;5.50;;;;;;;;;;5050790;28;20025;-72
2022/01/09 01:27:32;;;;;;;12.07;5.63;;;;;;;;;;5048799;28;20790;-72
2022/01/09 01:29:58;;;;;;;9.53;5.90;;;;;;;;;;5048626;28;20032;-69
2022/01/09 01:32:24;;;;;;;12.00;4.83;;;;;;;;;;5049978;28;20126;-71
2022/01/09 01:34:50;;;;;;;12.10;5.57;;;;;;;;;;5049099;28;20056;-72
2022/01/09 01:37:15;;;;;;;8.63;4.57;;;;;;;;;;5049394;28;20033;-71
2022/01/09 01:39:41;;;;;;;13.33;5.43;;;;;;;;;;5048695;28;20045;-71
2022/01/09 01:42:07;;;;;;;10.50;5.33;;;;;;;;;;5050261;28;20365;-70
2022/01/09 01:44:47;;;;;;;8.63;4.23;;;;;;;;;;5049909;28;20037;-72
2022/01/09 01:47:14;;;;;;;11.83;5.03;;;;;;;;;;5038985;28;20056;-74
2022/01/09 01:49:40;;;;;;;14.17;6.17;;;;;;;;;;5050781;28;20095;-71
2022/01/09 01:52:07;;;;;;;11.50;5.23;;;;;;;;;;5049603;28;20098;-70
2022/01/09 01:54:33;;;;;;;15.13;5.43;;;;;;;;;;5046480;28;20455;-74
2022/01/09 01:56:59;;;;;;;11.43;5.07;;;;;;;;;;5048672;28;20067;-69
2022/01/09 01:59:24;;;;;;;9.80;4.27;;;;;;;;;;5048296;28;20021;-71
2022/01/09 02:01:50;;;;;;;10.60;5.23;;;;;;;;;;5048437;28;20035;-70
2022/01/09 02:04:15;;;;;;;11.20;5.30;;;;;;;;;;5049467;28;20381;-70
2022/01/09 02:06:42;;;;;;;11.33;5.27;;;;;;;;;;5049649;28;20027;-70
2022/01/09 02:09:08;;;;;;;19.17;5.40;;;;;;;;;;5049726;28;20033;-71
2022/01/09 02:11:34;;;;;;;13.70;5.43;;;;;;;;;;5047939;28;20388;-71
2022/01/09 02:14:00;;;;;;;13.97;5.23;;;;;;;;;;5049542;28;20128;-70
2022/01/09 02:16:26;;;;;;;12.17;4.80;;;;;;;;;;5044712;28;20029;-71
2022/01/09 02:18:52;;;;;;;14.67;5.13;;;;;;;;;;5049602;28;20063;-70
2022/01/09 02:21:18;;;;;;;10.77;5.20;;;;;;;;;;5047898;28;20052;-72
2022/01/09 02:23:48;;;;;;;8.87;4.53;;;;;;;;;;5049884;28;20456;-72
2022/01/09 02:26:24;;;;;;;13.53;4.83;;;;;;;;;;5049625;28;20033;-70
2022/01/09 02:28:51;;;;;;;10.23;4.43;;;;;;;;;;5048317;28;20039;-70
2022/01/09 02:31:16;;;;;;;10.07;4.50;;;;;;;;;;5047530;28;20017;-70
2022/01/09 02:33:43;;;;;;;7.97;4.57;;;;;;;;;;5049111;28;20025;-69
2022/01/09 02:36:09;;;;;;;11.90;4.17;;;;;;;;;;5049122;28;20029;-71
2022/01/09 02:38:35;;;;;;;16.37;5.10;;;;;;;;;;5047448;28;20495;-71
2022/01/09 02:41:01;;;;;;;10.57;4.80;;;;;;;;;;5049493;28;20060;-72
2022/01/09 02:43:27;;;;;;;12.27;4.77;;;;;;;;;;5049223;28;20021;-71
2022/01/09 02:48:34;;;;;;;10.57;4.27;;;;;;;;;;5048824;28;20071;-70
2022/01/09 02:51:05;;;;;;;11.83;5.60;;;;;;;;;;5045806;28;20020;-72
2022/01/09 02:53:35;;;;;;;9.67;4.00;;;;;;;;;;5046523;28;20028;-70
2022/01/09 02:56:02;;;;;;;6.93;4.23;;;;;;;;;;5046879;28;20044;-71
2022/01/09 02:58:28;;;;;;;9.37;4.47;;;;;;;;;;5048181;28;20021;-71
2022/01/09 03:00:53;;;;;;;10.97;4.30;;;;;;;;;;5048946;28;20459;-71
2022/01/09 03:03:19;;;;;;;9.83;4.10;;;;;;;;;;5047228;28;20023;-71
2022/01/09 03:05:44;;;;;;;9.23;4.87;;;;;;;;;;5048711;28;20067;-71
2022/01/09 03:08:10;;;;;;;12.77;4.60;;;;;;;;;;5048806;28;20033;-71
2022/01/09 03:10:36;;;;;;;15.53;5.07;;;;;;;;;;5047242;28;20447;-71
2022/01/09 03:13:03;;;;;;;10.83;4.73;;;;;;;;;;5044007;28;20037;-71
2022/01/09 03:15:29;;;;;;;10.73;4.03;;;;;;;;;;5045784;28;20075;-70
2022/01/09 03:17:54;;;;;;;7.50;4.10;;;;;;;;;;5047588;28;20444;-71
2022/01/09 03:20:25;;;;;;;11.23;4.17;;;;;;;;;;5044008;28;20024;-72
2022/01/09 03:22:51;;;;;;;10.13;4.10;;;;;;;;;;5045009;28;20060;-72
2022/01/09 03:25:17;;;;;;;11.63;5.00;;;;;;;;;;5047158;28;20029;-71
2022/01/09 03:27:49;;;;;;;8.90;4.20;;;;;;;;;;5046927;28;20028;-71
2022/01/09 03:30:16;;;;;;;11.87;4.23;;;;;;;;;;5047402;28;20029;-71
2022/01/09 03:32:42;;;;;;;11.37;4.07;;;;;;;;;;5046909;28;20056;-72
2022/01/09 03:35:14;;;;;;;9.80;3.83;;;;;;;;;;5047340;28;20089;-72
2022/01/09 03:37:41;;;;;;;9.95;4.90;;;;;;;;;;5048777;28;20410;-71
2022/01/09 03:40:10;;;;;;;6.33;3.60;;;;;;;;;;5046909;28;20053;-71
2022/01/09 03:42:36;;;;;;;9.43;4.40;;;;;;;;;;5046885;28;20032;-70
2022/01/09 03:45:03;;;;;;;13.23;4.47;;;;;;;;;;5047022;28;20029;-71
2022/01/09 03:47:30;;;;;;;13.00;4.40;;;;;;;;;;5030546;28;20053;-71
2022/01/09 03:49:56;;;;;;;17.40;4.13;;;;;;;;;;5047101;28;20502;-72
2022/01/09 03:52:26;;;;;;;10.90;4.93;;;;;;;;;;5047865;28;20031;-71
2022/01/09 03:54:52;;;;;;;11.60;4.13;;;;;;;;;;5048851;28;20021;-71
2022/01/09 03:57:17;;;;;;;9.23;4.30;;;;;;;;;;5047152;28;20394;-71
2022/01/09 03:59:43;;;;;;;8.53;3.70;;;;;;;;;;5048684;28;20033;-70
2022/01/09 04:02:08;;;;;;;7.10;3.23;;;;;;;;;;5052302;28;20047;-70
2022/01/09 04:04:34;;;;;;;6.83;3.53;;;;;;;;;;5052051;28;20029;-70
2022/01/09 04:06:59;;;;;;;10.20;4.20;;;;;;;;;;5050505;28;20031;-71
2022/01/09 04:09:37;;;;;;;5.67;3.90;;;;;;;;;;5051872;28;20450;-71
2022/01/09 04:12:06;;;;;;;10.17;4.67;;;;;;;;;;5050493;28;20036;-71
2022/01/09 04:14:32;;;;;;;18.43;5.50;;;;;;;;;;5050349;28;20067;-71
2022/01/09 04:16:59;;;;;;;10.00;4.17;;;;;;;;;;5050323;28;20064;-70
2022/01/09 04:19:25;;;;;;;11.80;3.80;;;;;;;;;;5050256;28;20029;-72
2022/01/09 04:21:50;;;;;;;7.13;3.57;;;;;;;;;;5051657;28;20028;-71
2022/01/09 04:24:16;;;;;;;13.60;3.50;;;;;;;;;;5051864;28;20104;-71
2022/01/09 04:26:41;;;;;;;12.07;3.60;;;;;;;;;;5050007;28;20477;-71
2022/01/09 04:29:07;;;;;;;9.47;3.87;;;;;;;;;;5049379;28;20044;-72
2022/01/09 04:31:32;;;;;;;6.63;3.27;;;;;;;;;;5051196;28;20029;-72
2022/01/09 04:33:58;;;;;;;10.20;4.57;;;;;;;;;;5049581;28;20037;-73
2022/01/09 04:36:24;;;;;;;9.77;4.43;;;;;;;;;;5049929;28;20036;-73
2022/01/09 04:38:50;;;;;;;12.37;4.60;;;;;;;;;;5050095;28;20393;-73
2022/01/09 04:41:16;;;;;;;9.80;4.07;;;;;;;;;;5049982;28;20381;-74
2022/01/09 04:43:44;;;;;;;12.67;4.77;;;;;;;;;;5051293;28;20032;-73
2022/01/09 04:46:10;;;;;;;10.80;3.87;;;;;;;;;;5046409;28;20503;-74
2022/01/09 04:48:35;;;;;;;15.53;4.50;;;;;;;;;;5049910;28;20120;-74
2022/01/09 04:51:01;;;;;;;8.67;3.47;;;;;;;;;;5051453;28;20119;-74
2022/01/09 04:53:27;;;;;;;8.27;4.17;;;;;;;;;;5049766;28;20032;-74
2022/01/09 04:55:52;;;;;;;9.43;4.53;;;;;;;;;;5051543;28;20039;-74
2022/01/09 04:58:18;;;;;;;14.63;4.00;;;;;;;;;;5051436;28;20032;-74
2022/01/09 05:00:44;;;;;;;9.00;4.37;;;;;;;;;;5051437;28;20404;-73
2022/01/09 05:03:11;;;;;;;7.23;3.60;;;;;;;;;;5051198;28;20458;-74
2022/01/09 05:05:36;;;;;;;8.87;3.77;;;;;;;;;;5050668;28;20025;-74
2022/01/09 05:08:02;;;;;;;12.93;4.73;;;;;;;;;;5051472;28;20044;-73
2022/01/09 05:10:28;;;;;;;9.87;3.60;;;;;;;;;;5050806;28;20115;-74
2022/01/09 05:12:53;;;;;;;13.37;3.60;;;;;;;;;;5050027;28;20148;-74
2022/01/09 05:15:20;;;;;;;8.33;3.80;;;;;;;;;;5050806;28;20040;-74
2022/01/09 05:17:46;;;;;;;10.33;3.40;;;;;;;;;;5050633;28;20082;-74
2022/01/09 05:20:12;;;;;;;8.83;3.90;;;;;;;;;;5049391;28;20547;-74
2022/01/09 05:22:38;;;;;;;8.17;4.13;;;;;;;;;;5050482;28;20033;-74
2022/01/09 05:25:08;;;;;;;6.37;3.67;;;;;;;;;;5049500;28;20033;-74
2022/01/09 05:27:35;;;;;;;6.13;3.53;;;;;;;;;;5050713;28;20136;-74
2022/01/09 05:30:01;;;;;;;9.47;3.80;;;;;;;;;;5050416;28;20048;-75
2022/01/09 05:32:27;;;;;;;10.70;3.73;;;;;;;;;;5051055;28;20037;-73
2022/01/09 05:34:52;;;;;;;8.20;3.43;;;;;;;;;;5049148;28;20025;-74
2022/01/09 05:37:18;;;;;;;25.87;5.43;;;;;;;;;;5048818;28;20025;-74
2022/01/09 05:39:44;;;;;;;11.30;4.17;;;;;;;;;;5050287;28;20049;-74
2022/01/09 05:42:12;;;;;;;7.70;4.20;;;;;;;;;;5050652;28;20040;-74
2022/01/09 05:44:37;;;;;;;9.03;3.90;;;;;;;;;;5049838;28;20051;-74
2022/01/09 05:47:03;;;;;;;8.77;4.20;;;;;;;;;;5050391;28;20465;-74
2022/01/09 05:49:29;;;;;;;7.67;4.27;;;;;;;;;;5050198;28;20444;-74
2022/01/09 05:51:55;;;;;;;10.27;4.27;;;;;;;;;;5050038;28;20060;-74
2022/01/09 05:54:20;;;;;;;8.10;3.77;;;;;;;;;;5048800;28;20055;-74
2022/01/09 05:56:47;;;;;;;12.40;4.67;;;;;;;;;;5046312;28;20049;-74
2022/01/09 05:59:12;;;;;;;9.40;3.80;;;;;;;;;;5050151;28;20029;-75
2022/01/09 06:01:38;;;;;;;8.30;3.63;;;;;;;;;;5032602;28;20572;-74
2022/01/09 06:04:05;;;;;;;9.33;3.70;;;;;;;;;;5050231;28;20455;-74
2022/01/09 06:06:31;;;;;;;11.13;3.97;;;;;;;;;;5049813;28;20020;-74
2022/01/09 06:08:57;;;;;;;7.57;3.63;;;;;;;;;;5050487;28;20025;-75
2022/01/09 06:11:22;;;;;;;10.77;4.07;;;;;;;;;;5048813;28;20040;-74
2022/01/09 06:13:48;;;;;;;11.73;4.23;;;;;;;;;;5048340;28;20025;-74
2022/01/09 06:16:13;;;;;;;8.80;4.10;;;;;;;;;;5048638;28;20036;-75
2022/01/09 06:18:39;;;;;;;8.07;3.70;;;;;;;;;;5049847;28;20495;-74
2022/01/09 06:21:04;;;;;;;10.10;3.50;;;;;;;;;;5046308;28;20119;-74
2022/01/09 06:23:30;;;;;;;9.10;3.67;;;;;;;;;;5048969;28;20057;-74
2022/01/09 06:25:56;;;;;;;10.50;5.03;;;;;;;;;;5048545;28;20041;-74
2022/01/09 06:28:21;;;;;;;10.27;4.03;;;;;;;;;;5049693;28;20107;-73
2022/01/09 06:30:47;;;;;;;7.67;3.60;;;;;;;;;;5047684;28;20032;-74
2022/01/09 06:33:14;;;;;;;10.00;3.80;;;;;;;;;;5047758;28;20033;-74
2022/01/09 06:35:40;;;;;;;9.10;3.83;;;;;;;;;;5049139;28;20033;-74
2022/01/09 06:38:07;;;;;;;8.93;3.63;;;;;;;;;;5049334;28;20091;-75
2022/01/09 06:40:33;;;;;;;6.20;3.47;;;;;;;;;;5047803;28;20493;-74
2022/01/09 06:42:59;;;;;;;6.30;3.57;;;;;;;;;;5048293;28;20032;-74
2022/01/09 06:45:26;;;;;;;9.50;4.20;;;;;;;;;;5048477;28;20081;-73
2022/01/09 06:47:56;;;;;;;9.00;4.03;;;;;;;;;;5048553;28;20507;-75
2022/01/09 06:50:22;;;;;;;20.17;6.80;;;;;;;;;;5031352;28;20438;-74
2022/01/09 06:52:48;;;;;;;11.00;4.77;;;;;;;;;;5048913;28;20025;-74
2022/01/09 06:55:14;;;;;;;9.20;3.37;;;;;;;;;;5049315;28;20025;-74
2022/01/09 06:57:39;;;;;;;7.30;3.90;;;;;;;;;;5049196;28;20388;-73
2022/01/09 07:00:07;;;;;;;6.80;2.90;;;;;;;;;;5049083;28;20032;-73
2022/01/09 07:02:33;;;;;;;10.90;4.30;;;;;;;;;;5047292;28;20044;-74
2022/01/09 07:04:58;;;;;;;7.27;3.77;;;;;;;;;;5047646;28;20485;-74
2022/01/09 07:07:24;;;;;;;6.57;3.70;;;;;;;;;;5049851;28;20108;-74
2022/01/09 07:09:49;;;;;;;7.87;3.33;;;;;;;;;;5049432;28;20029;-74
2022/01/09 07:12:15;;;;;;;7.97;3.57;;;;;;;;;;5049210;28;20033;-74
2022/01/09 07:14:41;;;;;;;12.43;3.80;;;;;;;;;;5048708;28;20021;-74
2022/01/09 07:17:06;;;;;;;9.30;4.17;;;;;;;;;;5047546;28;20048;-74
2022/01/09 07:19:32;;;;;;;6.77;3.73;;;;;;;;;;5049500;28;20051;-73
2022/01/09 07:21:57;;;;;;;7.07;3.43;;;;;;;;;;5047909;28;20068;-75
2022/01/09 07:24:23;;;;;;;7.10;3.10;;;;;;;;;;5048265;28;20033;-74
2022/01/09 07:26:48;;;;;;;8.17;3.30;;;;;;;;;;5047494;28;20028;-74
2022/01/09 07:29:14;;;;;;;8.50;3.97;;;;;;;;;;5049121;28;20465;-74
2022/01/09 07:31:39;;;;;;;6.03;2.87;;;;;;;;;;5047085;28;20025;-75
2022/01/09 07:34:05;;;;;;;6.07;2.97;;;;;;;;;;5048880;28;20517;-74
2022/01/09 07:36:31;;;;;;;9.67;3.60;;;;;;;;;;5050201;28;20021;-72
2022/01/09 07:38:57;;;;;;;6.70;3.60;;;;;;;;;;5052948;28;20056;-74
2022/01/09 07:41:23;;;;;;;9.73;3.90;;;;;;;;;;5051592;28;20495;-74
2022/01/09 07:43:49;;;;;;;9.57;4.20;;;;;;;;;;5052328;28;20365;-76
2022/01/09 07:46:15;;;;;;;9.70;3.90;;;;;;;;;;5051679;28;20028;-74
2022/01/09 07:48:40;;;;;;;6.57;3.33;;;;;;;;;;5052585;28;20055;-75
2022/01/09 07:51:06;;;;;;;6.80;3.70;;;;;;;;;;5052590;28;20033;-74
2022/01/09 07:53:33;;;;;;;8.70;3.43;;;;;;;;;;5039322;28;20154;-74
2022/01/09 07:55:58;;;;;;;6.47;3.07;;;;;;;;;;5052513;28;20052;-74
2022/01/09 07:58:24;;;;;;;6.17;3.57;;;;;;;;;;5050922;28;20057;-73
2022/01/09 08:00:49;;;;;;;6.23;3.17;;;;;;;;;;5050937;28;20155;-73
2022/01/09 08:03:15;;;;;;;8.10;3.30;;;;;;;;;;5051177;28;20717;-74
2022/01/09 08:05:41;;;;;;;10.17;3.10;;;;;;;;;;5051819;28;20025;-75
2022/01/09 08:08:06;;;;;;;9.43;3.27;;;;;;;;;;5050777;28;20098;-75
2022/01/09 08:10:32;;;;;;;6.23;3.07;;;;;;;;;;5050792;28;20107;-74
2022/01/09 08:13:00;;;;;;;13.57;4.83;;;;;;;;;;5050559;28;20029;-74
2022/01/09 08:15:26;;;;;;;7.60;3.43;;;;;;;;;;5049755;28;20086;-74
2022/01/09 08:17:53;;;;;;;9.40;3.67;;;;;;;;;;5050541;28;20032;-74
2022/01/09 08:20:19;;;;;;;7.50;3.50;;;;;;;;;;5050772;28;20289;-74
2022/01/09 08:22:45;;;;;;;8.10;3.53;;;;;;;;;;5051809;28;20521;-75
2022/01/09 08:25:12;;;;;;;9.27;4.17;;;;;;;;;;5051957;28;20077;-73
2022/01/09 08:27:38;;;;;;;9.10;3.57;;;;;;;;;;5050642;28;20104;-74
2022/01/09 08:30:06;;;;;;;17.30;5.70;;;;;;;;;;5050524;28;20623;-74
2022/01/09 08:32:34;;;;;;;8.00;3.67;;;;;;;;;;5051799;28;20104;-74
2022/01/09 08:35:00;;;;;;;9.47;3.20;;;;;;;;;;5050642;28;20754;-74
2022/01/09 08:37:26;;;;;;;10.13;4.93;;;;;;;;;;5050056;28;20086;-73
2022/01/09 08:39:52;;;;;;;14.37;5.23;;;;;;;;;;5051045;28;20131;-74
2022/01/09 08:42:17;;;;;;;16.87;4.33;;;;;;;;;;5051160;28;20044;-74
2022/01/09 08:44:43;;;;;;;8.60;3.57;;;;;;;;;;5050285;28;20088;-74
2022/01/09 08:47:09;;;;;;;5.20;3.83;;;;;;;;;;5048912;28;20115;-74
2022/01/09 08:49:35;;;;;;;12.50;3.47;;;;;;;;;;5051542;28;20424;-74
2022/01/09 08:52:01;;;;;;;8.03;3.73;;;;;;;;;;5047971;28;20025;-75
2022/01/09 08:54:27;;;;;;;9.30;3.77;;;;;;;;;;5050326;28;20021;-74
2022/01/09 08:56:53;;;;;;;11.33;3.47;;;;;;;;;;5042941;28;20035;-74
2022/01/09 08:59:19;;;;;;;7.13;4.57;;;;;;;;;;5049733;28;20028;-75
2022/01/09 09:01:45;;;;;;;7.93;3.37;;;;;;;;;;5049537;28;20366;-74
2022/01/09 09:04:11;;;;;;;9.90;3.63;;;;;;;;;;5049811;28;20090;-74
2022/01/09 09:06:36;;;;;;;11.40;3.47;;;;;;;;;;5049647;28;20492;-74
2022/01/09 09:09:03;;;;;;;10.30;4.00;;;;;;;;;;5051117;28;20083;-74
2022/01/09 09:11:28;;;;;;;10.27;3.80;;;;;;;;;;5050986;28;20036;-74
2022/01/09 09:13:54;;;;;;;12.93;4.17;;;;;;;;;;5049296;28;20036;-74
2022/01/09 09:16:20;;;;;;;8.43;3.90;;;;;;;;;;5050878;28;20477;-75
2022/01/09 09:18:47;;;;;;;17.17;4.00;;;;;;;;;;5049501;28;20133;-74
2022/01/09 09:21:13;;;;;;;10.77;3.73;;;;;;;;;;5049235;28;20090;-74
2022/01/09 09:23:39;;;;;;;8.23;3.37;;;;;;;;;;5049342;28;20017;-75
2022/01/09 09:26:05;;;;;;;5.73;3.57;;;;;;;;;;5049271;28;20029;-75
2022/01/09 09:28:30;;;;;;;9.40;4.03;;;;;;;;;;5032389;28;20503;-74
2022/01/09 09:30:56;;;;;;;7.33;3.40;;;;;;;;;;5050112;28;20036;-74
2022/01/09 09:33:21;;;;;;;9.67;4.00;;;;;;;;;;5049672;28;20454;-75
2022/01/09 09:35:47;;;;;;;10.73;4.10;;;;;;;;;;5048659;28;20020;-74
2022/01/09 09:38:13;;;;;;;10.43;3.87;;;;;;;;;;5050615;28;20351;-74
2022/01/09 09:40:40;;;;;;;13.07;4.27;;;;;;;;;;5049765;28;20041;-74
2022/01/09 09:43:05;;;;;;;9.47;3.80;;;;;;;;;;5049673;28;20025;-74
2022/01/09 09:45:31;;;;;;;8.43;4.00;;;;;;;;;;5049332;28;20167;-75
2022/01/09 09:47:57;;;;;;;9.33;3.90;;;;;;;;;;5050655;28;20487;-74
2022/01/09 09:50:23;;;;;;;11.97;4.63;;;;;;;;;;5049185;28;20032;-75
2022/01/09 09:52:50;;;;;;;10.37;3.77;;;;;;;;;;5050286;28;20079;-74
2022/01/09 09:55:17;;;;;;;9.50;4.10;;;;;;;;;;5030942;28;20559;-74
2022/01/09 09:57:43;;;;;;;9.37;4.20;;;;;;;;;;5056324;28;20032;-74
2022/01/09 10:00:17;;;;;;;12.70;3.70;;;;;;;;;;5052181;28;20020;-75
2022/01/09 10:02:47;;;;;;;6.30;3.53;;;;;;;;;;5048717;28;20501;-75
2022/01/09 10:05:15;;;;;;;11.00;4.27;;;;;;;;;;5048491;28;20115;-74
2022/01/09 10:07:41;;;;;;;10.20;4.43;;;;;;;;;;5082003;28;20357;-75
2022/01/09 10:10:10;;;;;;;8.80;4.70;;;;;;;;;;5049886;28;20031;-75
2022/01/09 10:12:37;;;;;;;7.97;3.80;;;;;;;;;;5048266;28;20389;-74
2022/01/09 10:15:06;;;;;;;9.23;3.43;;;;;;;;;;5047786;28;20583;-75
2022/01/09 10:17:33;;;;;;;7.33;3.63;;;;;;;;;;5049478;28;20074;-74
2022/01/09 10:20:06;;;;;;;7.63;3.60;;;;;;;;;;5049321;28;20191;-75
2022/01/09 10:22:37;;;;;;;6.73;3.50;;;;;;;;;;5047791;28;20024;-75
2022/01/09 10:25:30;;;;;;;7.67;3.97;;;;;;;;;;5049266;28;20104;-74
2022/01/09 10:28:14;;;;;;;5.83;3.50;;;;;;;;;;5048690;28;20036;-74
2022/01/09 10:30:43;;;;;;;8.77;3.57;;;;;;;;;;5045431;28;20017;-74
2022/01/09 10:33:12;;;;;;;8.20;4.77;;;;;;;;;;5049830;28;20039;-73
2022/01/09 10:35:40;;;;;;;10.20;4.00;;;;;;;;;;5049502;28;20021;-73
2022/01/09 10:38:11;;;;;;;7.53;4.17;;;;;;;;;;5047997;28;20040;-74
2022/01/09 10:40:39;;;;;;;8.68;3.38;;;;;;;;;;5049257;28;20044;-74
2022/01/09 10:43:07;;;;;;;7.63;3.90;;;;;;;;;;5047581;28;20525;-75
2022/01/09 10:45:33;;;;;;;9.47;4.63;;;;;;;;;;5047651;28;20116;-75
2022/01/09 10:48:11;;;;;;;7.80;3.90;;;;;;;;;;5048753;28;20104;-74
2022/01/09 10:50:39;;;;;;;9.00;3.73;;;;;;;;;;5047230;28;20036;-74
2022/01/09 10:53:22;;;;;;;8.33;3.43;;;;;;;;;;5049059;28;20532;-75
2022/01/09 10:56:11;;;;;;;6.63;4.10;;;;;;;;;;5045422;28;20028;-74
2022/01/09 10:58:42;;;;;;;6.13;3.30;;;;;;;;;;5049421;28;20584;-74
2022/01/09 11:01:21;;;;;;;5.65;3.00;;;;;;;;;;5046412;28;20071;-75
2022/01/09 11:03:49;;;;;;;9.47;3.50;;;;;;;;;;5047888;28;20058;-73
2022/01/09 11:06:16;;;;;;;5.77;3.80;;;;;;;;;;5049345;28;20090;-75
2022/01/09 11:08:42;;;;;;;6.70;3.70;;;;;;;;;;5047370;28;20661;-73
2022/01/09 11:11:17;;;;;;;10.60;4.93;;;;;;;;;;5047841;28;20035;-75
2022/01/09 11:13:45;;;;;;;6.03;3.43;;;;;;;;;;5045241;28;20488;-75
2022/01/09 11:19:00;;;;;;;6.33;3.73;;;;;;;;;;5048532;28;20646;-75
2022/01/09 11:21:26;;;;;;;8.63;4.40;;;;;;;;;;5046760;28;20064;-73
2022/01/09 11:24:22;;;;;;;8.00;3.97;;;;;;;;;;5047137;28;20110;-75
2022/01/09 11:27:22;;;;;;;7.07;3.90;;;;;;;;;;5043615;28;20021;-73
2022/01/09 11:30:10;;;;;;;8.67;3.57;;;;;;;;;;5032878;28;20366;-75
2022/01/09 11:33:11;;;;;;;8.53;3.97;;;;;;;;;;5045028;28;20052;-74
2022/01/09 11:35:49;;;;;;;7.83;4.30;;;;;;;;;;5041862;28;20033;-74
2022/01/09 11:38:20;;;;;;;7.50;3.90;;;;;;;;;;5048499;28;20381;-75
2022/01/09 11:40:46;;;;;;;7.30;3.83;;;;;;;;;;5046432;28;20045;-74
2022/01/09 11:43:17;;;;;;;8.30;3.40;;;;;;;;;;5047995;28;20039;-74
2022/01/09 11:46:00;;;;;;;12.43;7.25;;;;;;;;;;5048500;28;20028;-76
2022/01/09 11:48:51;;;;;;;10.43;3.70;;;;;;;;;;5046774;28;20040;-75
2022/01/09 11:51:24;;;;;;;9.77;3.83;;;;;;;;;;5051882;28;20388;-75
2022/01/09 11:54:09;;;;;;;12.53;4.60;;;;;;;;;;5046279;28;20051;-74
2022/01/09 11:56:51;;;;;;;8.43;4.13;;;;;;;;;;5045721;28;20489;-75
2022/01/09 11:59:37;;;;;;;6.57;3.60;;;;;;;;;;5043707;28;20484;-75
2022/01/09 12:02:12;;;;;;;8.13;3.80;;;;;;;;;;5046743;28;20021;-75
2022/01/09 12:04:40;;;;;;;9.13;4.30;;;;;;;;;;5051213;28;20025;-75
2022/01/09 12:07:08;;;;;;;12.67;7.53;;;;;;;;;;5048053;28;20082;-75
2022/01/09 12:09:48;;;;;;;8.30;4.23;;;;;;;;;;5047714;28;20025;-74
2022/01/09 12:12:33;;;;;;;7.30;4.43;;;;;;;;;;5046760;28;20036;-75
2022/01/09 12:15:08;;;;;;;9.65;3.72;;;;;;;;;;5046724;28;20108;-74
2022/01/09 12:17:33;;;;;;;18.23;4.93;;;;;;;;;;5046560;28;20091;-74
2022/01/09 12:20:22;;;;;;;9.60;3.83;;;;;;;;;;5045644;28;20036;-75
2022/01/09 12:22:49;;;;;;;7.50;3.53;;;;;;;;;;5049682;28;20420;-73
2022/01/09 12:25:24;;;;;;;8.23;4.33;;;;;;;;;;5034076;28;20040;-74
2022/01/09 12:27:54;;;;;;;9.13;5.07;;;;;;;;;;5057478;28;20063;-74
2022/01/09 12:30:50;;;;;;;6.67;4.33;;;;;;;;;;5049980;28;20029;-75
2022/01/09 12:33:35;;;;;;;6.40;4.33;;;;;;;;;;5050199;28;20027;-74
2022/01/09 12:36:04;;;;;;;11.67;4.70;;;;;;;;;;5047726;28;20052;-74
2022/01/09 12:38:32;;;;;;;7.40;4.40;;;;;;;;;;5051323;28;20463;-76
2022/01/09 12:41:03;;;;;;;12.77;5.40;;;;;;;;;;5050850;28;20120;-76
2022/01/09 12:43:30;;;;;;;11.10;4.63;;;;;;;;;;5049653;28;20017;-75
2022/01/09 12:45:56;;;;;;;9.30;4.33;;;;;;;;;;5050080;28;20044;-74
2022/01/09 12:48:30;;;;;;;11.73;5.63;;;;;;;;;;5049565;28;20032;-75
2022/01/09 12:51:15;;;;;;;6.33;4.27;;;;;;;;;;5049267;28;20033;-75
2022/01/09 12:53:52;;;;;;;9.60;4.97;;;;;;;;;;5049498;28;20036;-75
2022/01/09 12:56:26;;;;;;;9.90;4.60;;;;;;;;;;5046833;28;20021;-75
2022/01/09 12:59:08;;;;;;;8.57;5.20;;;;;;;;;;5049291;28;20112;-75
2022/01/09 13:01:41;;;;;;;9.60;3.70;;;;;;;;;;5049226;28;20024;-74
2022/01/09 13:04:18;;;;;;;6.43;4.10;;;;;;;;;;5045906;28;20033;-75
2022/01/09 13:06:49;;;;;;;17.73;6.80;;;;;;;;;;5048876;28;20249;-75
2022/01/09 13:09:19;;;;;;;9.20;5.10;;;;;;;;;;5046223;28;20477;-75
2022/01/09 13:11:55;;;;;;;6.03;3.37;;;;;;;;;;5049034;28;20292;-75
2022/01/09 13:14:21;;;;;;;7.63;3.90;;;;;;;;;;5050607;28;20036;-75
2022/01/09 13:16:46;;;;;;;10.17;4.23;;;;;;;;;;5048865;28;20536;-74
2022/01/09 13:19:14;;;;;;;6.23;3.73;;;;;;;;;;5050249;28;20516;-74
2022/01/09 13:21:45;;;;;;;6.83;3.23;;;;;;;;;;5032495;28;20032;-75
2022/01/09 13:24:12;;;;;;;8.93;4.33;;;;;;;;;;5050074;28;20414;-75
2022/01/09 13:26:39;;;;;;;9.57;3.60;;;;;;;;;;5050203;28;20465;-75
2022/01/09 13:29:15;;;;;;;7.00;3.13;;;;;;;;;;5048877;28;20489;-75
2022/01/09 13:31:48;;;;;;;8.07;3.37;;;;;;;;;;5048404;28;20046;-74
2022/01/09 13:34:17;;;;;;;6.60;3.20;;;;;;;;;;5049550;28;20099;-75
2022/01/09 13:36:51;;;;;;;5.70;3.57;;;;;;;;;;5049680;28;20028;-75
2022/01/09 13:39:18;;;;;;;4.43;2.23;;;;;;;;;;5050131;28;20052;-74
2022/01/09 13:42:05;;;;;;;4.03;1.90;;;;;;;;;;5049929;28;20499;-75
2022/01/09 13:44:37;;;;;;;2.47;1.50;;;;;;;;;;5048610;28;20043;-75
2022/01/09 13:47:05;;;;;;;1.50;1.33;;;;;;;;;;5048513;28;20074;-74
2022/01/09 13:49:33;;;;;;;1.60;1.20;;;;;;;;;;5049839;28;20083;-74
2022/01/09 13:51:59;;;;;;;1.60;1.07;;;;;;;;;;5049597;28;20017;-74
2022/01/09 13:54:28;;;;;;;1.40;1.00;;;;;;;;;;5048158;28;20033;-75
2022/01/09 13:57:13;;;;;;;1.33;0.80;;;;;;;;;;5049501;28;20096;-75
2022/01/09 13:59:42;;;;;;;1.63;1.10;;;;;;;;;;5048047;28;20029;-74
2022/01/09 14:02:09;;;;;;;2.43;1.00;;;;;;;;;;5042937;28;20473;-75
2022/01/09 14:04:34;;;;;;;1.57;1.00;;;;;;;;;;5044418;28;20052;-75
2022/01/09 14:07:05;;;;;;;2.07;1.13;;;;;;;;;;5048872;28;20500;-74
2022/01/09 14:09:37;;;;;;;1.95;0.90;;;;;;;;;;5044246;28;20458;-75
2022/01/09 14:12:07;;;;;;;2.08;1.00;;;;;;;;;;5048112;28;20048;-75
2022/01/09 14:14:35;;;;;;;2.00;1.10;;;;;;;;;;5051257;28;20579;-76
2022/01/09 14:17:00;;;;;;;5.10;1.27;;;;;;;;;;5053862;28;20044;-76
2022/01/09 14:19:46;;;;;;;4.10;1.43;;;;;;;;;;5046623;28;20029;-75
2022/01/09 14:22:11;;;;;;;1.97;1.00;;;;;;;;;;5049053;28;20389;-75
2022/01/09 14:24:58;;;;;;;3.13;1.00;;;;;;;;;;5049169;28;20075;-75
2022/01/09 14:27:30;;;;;;;1.77;1.37;;;;;;;;;;5043307;28;20059;-74
2022/01/09 14:29:56;;;;;;;4.78;1.17;;;;;;;;;;5047812;28;20028;-75
2022/01/09 14:32:22;;;;;;;1.87;0.90;;;;;;;;;;5047450;28;20534;-75
2022/01/09 14:34:48;;;;;;;1.80;1.20;;;;;;;;;;5049304;28;20055;-74
2022/01/09 14:37:14;;;;;;;2.67;1.00;;;;;;;;;;5047246;28;20024;-75
2022/01/09 14:39:40;;;;;;;1.70;0.90;;;;;;;;;;5049263;28;20531;-75
2022/01/09 14:42:08;;;;;;;1.93;1.10;;;;;;;;;;5047526;28;20033;-75
2022/01/09 14:44:36;;;;;;;2.20;1.03;;;;;;;;;;5046623;28;20418;-76
2022/01/09 14:47:03;;;;;;;2.17;1.10;;;;;;;;;;5047659;28;20036;-76
2022/01/09 14:49:29;;;;;;;1.80;1.23;;;;;;;;;;5049024;28;20024;-75